sensor_id;sensor_type;location;lat;lon;timestamp;P1;durP1;ratioP1;P2;durP2;ratioP2
11911;SDS011;6016;41.928;25.556;2024-01-15T00:00:16;45.20;;;17.95;;
11911;SDS011;6016;41.928;25.556;2024-01-15T00:02:44;39.22;;;16.67;;
11911;SDS011;6016;41.928;25.556;2024-01-15T00:05:12;40.80;;;17.95;;
11911;SDS011;6016;41.928;25.556;2024-01-15T00:07:39;49.47;;;18.10;;
11911;SDS011;6016;41.928;25.556;2024-01-15T00:10:06;41.22;;;17.25;;
11911;SDS011;6016;41.928;25.556;2024-01-15T00:12:34;36.47;;;15.15;;
11911;SDS011;6016;41.928;25.556;2024-01-15T00:15:01;50.75;;;20.13;;
11911;SDS011;6016;41.928;25.556;2024-01-15T00:17:28;58.92;;;22.25;;
11911;SDS011;6016;41.928;25.556;2024-01-15T00:19:55;65.72;;;24.35;;
11911;SDS011;6016;41.928;25.556;2024-01-15T00:22:23;75.47;;;28.88;;
11911;SDS011;6016;41.928;25.556;2024-01-15T00:24:51;79.07;;;30.60;;
11911;SDS011;6016;41.928;25.556;2024-01-15T00:27:18;77.50;;;29.02;;
11911;SDS011;6016;41.928;25.556;2024-01-15T00:29:45;78.85;;;30.13;;
11911;SDS011;6016;41.928;25.556;2024-01-15T00:32:12;73.30;;;26.98;;
11911;SDS011;6016;41.928;25.556;2024-01-15T00:34:39;55.53;;;23.02;;
11911;SDS011;6016;41.928;25.556;2024-01-15T00:37:06;61.63;;;21.98;;
11911;SDS011;6016;41.928;25.556;2024-01-15T00:39:35;60.95;;;24.92;;
11911;SDS011;6016;41.928;25.556;2024-01-15T00:42:02;74.50;;;26.45;;
11911;SDS011;6016;41.928;25.556;2024-01-15T00:44:29;65.00;;;26.23;;
11911;SDS011;6016;41.928;25.556;2024-01-15T00:46:56;76.88;;;28.88;;
11911;SDS011;6016;41.928;25.556;2024-01-15T00:49:23;74.53;;;27.23;;
11911;SDS011;6016;41.928;25.556;2024-01-15T00:51:50;69.60;;;26.48;;
11911;SDS011;6016;41.928;25.556;2024-01-15T00:54:17;66.68;;;25.65;;
11911;SDS011;6016;41.928;25.556;2024-01-15T00:56:45;65.40;;;25.02;;
11911;SDS011;6016;41.928;25.556;2024-01-15T00:59:12;67.07;;;26.88;;
11911;SDS011;6016;41.928;25.556;2024-01-15T01:01:40;66.80;;;25.17;;
11911;SDS011;6016;41.928;25.556;2024-01-15T01:04:08;60.13;;;26.35;;
11911;SDS011;6016;41.928;25.556;2024-01-15T01:06:35;65.35;;;25.65;;
11911;SDS011;6016;41.928;25.556;2024-01-15T01:09:02;62.15;;;25.80;;
11911;SDS011;6016;41.928;25.556;2024-01-15T01:11:30;63.30;;;24.08;;
11911;SDS011;6016;41.928;25.556;2024-01-15T01:13:58;64.03;;;23.83;;
11911;SDS011;6016;41.928;25.556;2024-01-15T01:16:26;63.80;;;24.75;;
11911;SDS011;6016;41.928;25.556;2024-01-15T01:18:53;65.38;;;24.88;;
11911;SDS011;6016;41.928;25.556;2024-01-15T01:21:20;60.35;;;23.83;;
11911;SDS011;6016;41.928;25.556;2024-01-15T01:23:47;62.20;;;24.08;;
11911;SDS011;6016;41.928;25.556;2024-01-15T01:26:15;59.08;;;23.90;;
11911;SDS011;6016;41.928;25.556;2024-01-15T01:28:42;54.30;;;22.33;;
11911;SDS011;6016;41.928;25.556;2024-01-15T01:31:10;56.38;;;22.83;;
11911;SDS011;6016;41.928;25.556;2024-01-15T01:33:38;58.17;;;22.25;;
11911;SDS011;6016;41.928;25.556;2024-01-15T01:36:07;59.50;;;21.80;;
11911;SDS011;6016;41.928;25.556;2024-01-15T01:38:34;55.08;;;21.45;;
11911;SDS011;6016;41.928;25.556;2024-01-15T01:41:02;58.00;;;20.95;;
11911;SDS011;6016;41.928;25.556;2024-01-15T01:43:29;49.25;;;20.10;;
11911;SDS011;6016;41.928;25.556;2024-01-15T01:45:56;60.22;;;21.98;;
11911;SDS011;6016;41.928;25.556;2024-01-15T01:48:26;50.63;;;20.40;;
11911;SDS011;6016;41.928;25.556;2024-01-15T01:50:53;64.97;;;23.80;;
11911;SDS011;6016;41.928;25.556;2024-01-15T01:53:23;62.70;;;23.85;;
11911;SDS011;6016;41.928;25.556;2024-01-15T01:55:51;61.15;;;23.70;;
11911;SDS011;6016;41.928;25.556;2024-01-15T01:58:19;68.72;;;25.73;;
11911;SDS011;6016;41.928;25.556;2024-01-15T02:00:47;61.25;;;24.48;;
11911;SDS011;6016;41.928;25.556;2024-01-15T02:03:14;56.83;;;22.35;;
11911;SDS011;6016;41.928;25.556;2024-01-15T02:05:43;59.08;;;23.15;;
11911;SDS011;6016;41.928;25.556;2024-01-15T02:08:11;56.65;;;22.65;;
11911;SDS011;6016;41.928;25.556;2024-01-15T02:10:38;50.15;;;20.38;;
11911;SDS011;6016;41.928;25.556;2024-01-15T02:13:05;57.20;;;22.23;;
11911;SDS011;6016;41.928;25.556;2024-01-15T02:15:32;60.00;;;23.60;;
11911;SDS011;6016;41.928;25.556;2024-01-15T02:18:00;54.17;;;22.00;;
11911;SDS011;6016;41.928;25.556;2024-01-15T02:20:27;50.47;;;19.35;;
11911;SDS011;6016;41.928;25.556;2024-01-15T02:23:02;45.33;;;18.20;;
11911;SDS011;6016;41.928;25.556;2024-01-15T02:25:35;40.00;;;16.70;;
11911;SDS011;6016;41.928;25.556;2024-01-15T02:28:03;44.22;;;16.67;;
11911;SDS011;6016;41.928;25.556;2024-01-15T02:30:30;36.17;;;16.17;;
11911;SDS011;6016;41.928;25.556;2024-01-15T02:32:58;42.80;;;16.27;;
11911;SDS011;6016;41.928;25.556;2024-01-15T02:35:25;38.55;;;14.70;;
11911;SDS011;6016;41.928;25.556;2024-01-15T02:37:52;32.78;;;14.18;;
11911;SDS011;6016;41.928;25.556;2024-01-15T02:40:21;31.05;;;13.63;;
11911;SDS011;6016;41.928;25.556;2024-01-15T02:42:48;47.67;;;17.25;;
11911;SDS011;6016;41.928;25.556;2024-01-15T02:45:15;31.85;;;13.15;;
11911;SDS011;6016;41.928;25.556;2024-01-15T02:47:42;44.17;;;15.98;;
11911;SDS011;6016;41.928;25.556;2024-01-15T02:50:09;55.30;;;20.45;;
11911;SDS011;6016;41.928;25.556;2024-01-15T02:52:36;49.20;;;19.50;;
11911;SDS011;6016;41.928;25.556;2024-01-15T02:55:03;34.90;;;14.02;;
11911;SDS011;6016;41.928;25.556;2024-01-15T02:57:31;34.95;;;13.98;;
11911;SDS011;6016;41.928;25.556;2024-01-15T02:59:58;38.80;;;14.70;;
11911;SDS011;6016;41.928;25.556;2024-01-15T03:02:25;29.08;;;13.73;;
11911;SDS011;6016;41.928;25.556;2024-01-15T03:04:52;33.50;;;13.48;;
11911;SDS011;6016;41.928;25.556;2024-01-15T03:07:19;37.78;;;12.93;;
11911;SDS011;6016;41.928;25.556;2024-01-15T03:09:46;33.03;;;13.40;;
11911;SDS011;6016;41.928;25.556;2024-01-15T03:12:13;26.75;;;11.63;;
11911;SDS011;6016;41.928;25.556;2024-01-15T03:14:42;32.72;;;12.98;;
11911;SDS011;6016;41.928;25.556;2024-01-15T03:17:09;30.17;;;12.38;;
11911;SDS011;6016;41.928;25.556;2024-01-15T03:19:37;28.70;;;11.90;;
11911;SDS011;6016;41.928;25.556;2024-01-15T03:22:04;24.98;;;10.48;;
11911;SDS011;6016;41.928;25.556;2024-01-15T03:24:33;28.50;;;11.50;;
11911;SDS011;6016;41.928;25.556;2024-01-15T03:27:00;25.08;;;10.80;;
11911;SDS011;6016;41.928;25.556;2024-01-15T03:29:27;21.10;;;10.45;;
11911;SDS011;6016;41.928;25.556;2024-01-15T03:31:56;25.90;;;10.52;;
11911;SDS011;6016;41.928;25.556;2024-01-15T03:34:23;26.75;;;10.80;;
11911;SDS011;6016;41.928;25.556;2024-01-15T03:36:50;25.67;;;10.10;;
11911;SDS011;6016;41.928;25.556;2024-01-15T03:39:17;26.95;;;9.90;;
11911;SDS011;6016;41.928;25.556;2024-01-15T03:41:43;24.52;;;10.45;;
11911;SDS011;6016;41.928;25.556;2024-01-15T03:44:11;23.70;;;9.15;;
11911;SDS011;6016;41.928;25.556;2024-01-15T03:46:38;24.15;;;9.73;;
11911;SDS011;6016;41.928;25.556;2024-01-15T03:49:06;23.95;;;10.50;;
11911;SDS011;6016;41.928;25.556;2024-01-15T03:51:33;27.23;;;11.45;;
11911;SDS011;6016;41.928;25.556;2024-01-15T03:54:00;25.02;;;10.85;;
11911;SDS011;6016;41.928;25.556;2024-01-15T03:56:27;24.88;;;10.10;;
11911;SDS011;6016;41.928;25.556;2024-01-15T03:58:54;26.80;;;10.30;;
11911;SDS011;6016;41.928;25.556;2024-01-15T04:01:21;23.85;;;9.43;;
11911;SDS011;6016;41.928;25.556;2024-01-15T04:03:48;22.10;;;9.38;;
11911;SDS011;6016;41.928;25.556;2024-01-15T04:06:16;22.45;;;9.95;;
11911;SDS011;6016;41.928;25.556;2024-01-15T04:08:43;24.35;;;10.52;;
11911;SDS011;6016;41.928;25.556;2024-01-15T04:11:10;28.15;;;13.25;;
11911;SDS011;6016;41.928;25.556;2024-01-15T04:13:37;34.22;;;14.48;;
11911;SDS011;6016;41.928;25.556;2024-01-15T04:16:04;32.33;;;14.20;;
11911;SDS011;6016;41.928;25.556;2024-01-15T04:18:31;29.85;;;13.68;;
11911;SDS011;6016;41.928;25.556;2024-01-15T04:20:58;32.00;;;14.02;;
11911;SDS011;6016;41.928;25.556;2024-01-15T04:23:27;28.63;;;12.68;;
11911;SDS011;6016;41.928;25.556;2024-01-15T04:25:54;30.05;;;12.63;;
11911;SDS011;6016;41.928;25.556;2024-01-15T04:28:21;29.80;;;12.25;;
11911;SDS011;6016;41.928;25.556;2024-01-15T04:30:48;29.42;;;11.82;;
11911;SDS011;6016;41.928;25.556;2024-01-15T04:33:15;27.30;;;11.60;;
11911;SDS011;6016;41.928;25.556;2024-01-15T04:35:42;38.05;;;13.15;;
11911;SDS011;6016;41.928;25.556;2024-01-15T04:38:09;36.40;;;13.73;;
11911;SDS011;6016;41.928;25.556;2024-01-15T04:40:37;28.77;;;11.80;;
11911;SDS011;6016;41.928;25.556;2024-01-15T04:43:04;30.23;;;11.63;;
11911;SDS011;6016;41.928;25.556;2024-01-15T04:45:31;31.58;;;12.52;;
11911;SDS011;6016;41.928;25.556;2024-01-15T04:47:58;26.42;;;11.45;;
11911;SDS011;6016;41.928;25.556;2024-01-15T04:50:25;28.02;;;10.73;;
11911;SDS011;6016;41.928;25.556;2024-01-15T04:52:52;27.30;;;10.70;;
11911;SDS011;6016;41.928;25.556;2024-01-15T04:55:19;22.40;;;9.80;;
11911;SDS011;6016;41.928;25.556;2024-01-15T04:57:47;23.27;;;9.50;;
11911;SDS011;6016;41.928;25.556;2024-01-15T05:00:15;26.83;;;10.45;;
11911;SDS011;6016;41.928;25.556;2024-01-15T05:02:42;35.10;;;14.13;;
11911;SDS011;6016;41.928;25.556;2024-01-15T05:05:09;34.30;;;14.38;;
11911;SDS011;6016;41.928;25.556;2024-01-15T05:07:36;40.78;;;15.45;;
11911;SDS011;6016;41.928;25.556;2024-01-15T05:10:03;35.70;;;15.50;;
11911;SDS011;6016;41.928;25.556;2024-01-15T05:12:32;39.95;;;16.08;;
11911;SDS011;6016;41.928;25.556;2024-01-15T05:15:00;36.28;;;15.07;;
11911;SDS011;6016;41.928;25.556;2024-01-15T05:17:28;35.60;;;13.80;;
11911;SDS011;6016;41.928;25.556;2024-01-15T05:19:55;31.45;;;12.70;;
11911;SDS011;6016;41.928;25.556;2024-01-15T05:22:22;25.63;;;10.70;;
11911;SDS011;6016;41.928;25.556;2024-01-15T05:24:50;28.92;;;11.80;;
11911;SDS011;6016;41.928;25.556;2024-01-15T05:27:17;27.58;;;10.27;;
11911;SDS011;6016;41.928;25.556;2024-01-15T05:29:44;25.27;;;10.02;;
11911;SDS011;6016;41.928;25.556;2024-01-15T05:32:13;23.42;;;10.30;;
11911;SDS011;6016;41.928;25.556;2024-01-15T05:34:40;36.38;;;14.10;;
11911;SDS011;6016;41.928;25.556;2024-01-15T05:37:07;45.15;;;18.38;;
11911;SDS011;6016;41.928;25.556;2024-01-15T05:39:34;51.78;;;21.38;;
11911;SDS011;6016;41.928;25.556;2024-01-15T05:42:01;51.22;;;21.95;;
11911;SDS011;6016;41.928;25.556;2024-01-15T05:44:28;47.65;;;18.42;;
11911;SDS011;6016;41.928;25.556;2024-01-15T05:46:55;40.25;;;14.88;;
11911;SDS011;6016;41.928;25.556;2024-01-15T05:49:23;65.68;;;24.30;;
11911;SDS011;6016;41.928;25.556;2024-01-15T05:51:50;81.45;;;29.75;;
11911;SDS011;6016;41.928;25.556;2024-01-15T05:54:18;81.43;;;31.10;;
11911;SDS011;6016;41.928;25.556;2024-01-15T05:56:45;75.50;;;29.90;;
11911;SDS011;6016;41.928;25.556;2024-01-15T05:59:12;76.95;;;28.02;;
11911;SDS011;6016;41.928;25.556;2024-01-15T06:01:39;66.90;;;27.30;;
11911;SDS011;6016;41.928;25.556;2024-01-15T06:04:06;90.63;;;33.40;;
11911;SDS011;6016;41.928;25.556;2024-01-15T06:06:35;85.00;;;32.38;;
11911;SDS011;6016;41.928;25.556;2024-01-15T06:09:02;75.95;;;29.45;;
11911;SDS011;6016;41.928;25.556;2024-01-15T06:11:31;74.07;;;27.27;;
11911;SDS011;6016;41.928;25.556;2024-01-15T06:13:58;79.13;;;28.38;;
11911;SDS011;6016;41.928;25.556;2024-01-15T06:16:25;62.35;;;24.98;;
11911;SDS011;6016;41.928;25.556;2024-01-15T06:18:52;62.42;;;25.38;;
11911;SDS011;6016;41.928;25.556;2024-01-15T06:21:19;65.57;;;26.98;;
11911;SDS011;6016;41.928;25.556;2024-01-15T06:23:48;63.58;;;25.27;;
11911;SDS011;6016;41.928;25.556;2024-01-15T06:26:15;64.82;;;26.35;;
11911;SDS011;6016;41.928;25.556;2024-01-15T06:28:42;65.15;;;25.80;;
11911;SDS011;6016;41.928;25.556;2024-01-15T06:31:09;66.32;;;27.27;;
11911;SDS011;6016;41.928;25.556;2024-01-15T06:33:36;85.75;;;33.75;;
11911;SDS011;6016;41.928;25.556;2024-01-15T06:36:03;87.18;;;33.75;;
11911;SDS011;6016;41.928;25.556;2024-01-15T06:38:31;81.57;;;35.75;;
11911;SDS011;6016;41.928;25.556;2024-01-15T06:41:00;94.85;;;36.70;;
11911;SDS011;6016;41.928;25.556;2024-01-15T06:43:27;142.48;;;58.90;;
11911;SDS011;6016;41.928;25.556;2024-01-15T06:45:54;139.35;;;57.38;;
11911;SDS011;6016;41.928;25.556;2024-01-15T06:48:21;117.18;;;46.50;;
11911;SDS011;6016;41.928;25.556;2024-01-15T06:50:48;114.50;;;44.97;;
11911;SDS011;6016;41.928;25.556;2024-01-15T06:53:15;94.88;;;37.95;;
11911;SDS011;6016;41.928;25.556;2024-01-15T06:55:42;84.90;;;37.90;;
11911;SDS011;6016;41.928;25.556;2024-01-15T06:58:10;77.05;;;33.80;;
11911;SDS011;6016;41.928;25.556;2024-01-15T07:00:37;84.55;;;35.88;;
11911;SDS011;6016;41.928;25.556;2024-01-15T07:03:05;157.15;;;66.13;;
11911;SDS011;6016;41.928;25.556;2024-01-15T07:05:32;147.48;;;60.75;;
11911;SDS011;6016;41.928;25.556;2024-01-15T07:07:59;99.40;;;39.03;;
11911;SDS011;6016;41.928;25.556;2024-01-15T07:10:26;86.40;;;36.00;;
11911;SDS011;6016;41.928;25.556;2024-01-15T07:12:53;95.75;;;39.42;;
11911;SDS011;6016;41.928;25.556;2024-01-15T07:15:22;104.40;;;41.78;;
11911;SDS011;6016;41.928;25.556;2024-01-15T07:17:50;102.53;;;43.95;;
11911;SDS011;6016;41.928;25.556;2024-01-15T07:20:17;100.60;;;40.85;;
11911;SDS011;6016;41.928;25.556;2024-01-15T07:22:44;96.43;;;39.83;;
11911;SDS011;6016;41.928;25.556;2024-01-15T07:25:11;95.72;;;42.53;;
11911;SDS011;6016;41.928;25.556;2024-01-15T07:27:39;100.72;;;44.97;;
11911;SDS011;6016;41.928;25.556;2024-01-15T07:30:09;117.53;;;46.90;;
11911;SDS011;6016;41.928;25.556;2024-01-15T07:32:38;130.05;;;52.30;;
11911;SDS011;6016;41.928;25.556;2024-01-15T07:35:06;122.40;;;50.67;;
11911;SDS011;6016;41.928;25.556;2024-01-15T07:37:33;124.60;;;51.50;;
11911;SDS011;6016;41.928;25.556;2024-01-15T07:40:00;162.10;;;69.88;;
11911;SDS011;6016;41.928;25.556;2024-01-15T07:42:29;171.02;;;72.50;;
11911;SDS011;6016;41.928;25.556;2024-01-15T07:44:56;170.50;;;69.63;;
11911;SDS011;6016;41.928;25.556;2024-01-15T07:47:23;201.02;;;82.50;;
11911;SDS011;6016;41.928;25.556;2024-01-15T07:49:52;216.38;;;87.13;;
11911;SDS011;6016;41.928;25.556;2024-01-15T07:52:19;167.30;;;74.28;;
11911;SDS011;6016;41.928;25.556;2024-01-15T07:54:46;164.35;;;73.32;;
11911;SDS011;6016;41.928;25.556;2024-01-15T07:57:13;168.60;;;73.05;;
11911;SDS011;6016;41.928;25.556;2024-01-15T07:59:40;169.43;;;65.25;;
11911;SDS011;6016;41.928;25.556;2024-01-15T08:02:07;141.30;;;59.58;;
11911;SDS011;6016;41.928;25.556;2024-01-15T08:04:36;129.68;;;51.22;;
11911;SDS011;6016;41.928;25.556;2024-01-15T08:07:04;109.93;;;45.95;;
11911;SDS011;6016;41.928;25.556;2024-01-15T08:09:32;103.32;;;42.35;;
11911;SDS011;6016;41.928;25.556;2024-01-15T08:11:59;103.43;;;41.80;;
11911;SDS011;6016;41.928;25.556;2024-01-15T08:14:26;97.90;;;40.95;;
11911;SDS011;6016;41.928;25.556;2024-01-15T08:16:53;104.93;;;42.25;;
11911;SDS011;6016;41.928;25.556;2024-01-15T08:19:20;115.78;;;45.35;;
11911;SDS011;6016;41.928;25.556;2024-01-15T08:21:47;104.57;;;43.08;;
11911;SDS011;6016;41.928;25.556;2024-01-15T08:24:15;102.03;;;37.53;;
11911;SDS011;6016;41.928;25.556;2024-01-15T08:26:43;92.68;;;35.85;;
11911;SDS011;6016;41.928;25.556;2024-01-15T08:29:10;79.97;;;30.70;;
11911;SDS011;6016;41.928;25.556;2024-01-15T08:31:37;66.28;;;28.45;;
11911;SDS011;6016;41.928;25.556;2024-01-15T08:34:04;60.28;;;24.30;;
11911;SDS011;6016;41.928;25.556;2024-01-15T08:36:31;56.10;;;22.30;;
11911;SDS011;6016;41.928;25.556;2024-01-15T08:39:00;52.22;;;21.75;;
11911;SDS011;6016;41.928;25.556;2024-01-15T08:41:31;64.93;;;24.67;;
11911;SDS011;6016;41.928;25.556;2024-01-15T08:43:58;84.93;;;34.70;;
11911;SDS011;6016;41.928;25.556;2024-01-15T08:46:25;69.82;;;26.05;;
11911;SDS011;6016;41.928;25.556;2024-01-15T08:48:52;68.18;;;28.73;;
11911;SDS011;6016;41.928;25.556;2024-01-15T08:51:19;75.22;;;31.17;;
11911;SDS011;6016;41.928;25.556;2024-01-15T08:53:46;83.35;;;33.85;;
11911;SDS011;6016;41.928;25.556;2024-01-15T08:56:13;71.40;;;29.58;;
11911;SDS011;6016;41.928;25.556;2024-01-15T08:58:41;61.58;;;25.17;;
11911;SDS011;6016;41.928;25.556;2024-01-15T09:01:08;63.92;;;27.17;;
11911;SDS011;6016;41.928;25.556;2024-01-15T09:03:35;70.13;;;29.02;;
11911;SDS011;6016;41.928;25.556;2024-01-15T09:06:02;62.22;;;25.60;;
11911;SDS011;6016;41.928;25.556;2024-01-15T09:08:29;57.63;;;23.67;;
11911;SDS011;6016;41.928;25.556;2024-01-15T09:10:56;56.38;;;22.95;;
11911;SDS011;6016;41.928;25.556;2024-01-15T09:13:23;53.05;;;22.85;;
11911;SDS011;6016;41.928;25.556;2024-01-15T09:15:52;51.67;;;22.08;;
11911;SDS011;6016;41.928;25.556;2024-01-15T09:18:19;63.05;;;27.17;;
11911;SDS011;6016;41.928;25.556;2024-01-15T09:20:46;58.03;;;25.58;;
11911;SDS011;6016;41.928;25.556;2024-01-15T09:23:13;53.63;;;23.15;;
11911;SDS011;6016;41.928;25.556;2024-01-15T09:25:40;53.28;;;24.70;;
11911;SDS011;6016;41.928;25.556;2024-01-15T09:28:07;53.42;;;23.23;;
11911;SDS011;6016;41.928;25.556;2024-01-15T09:30:34;52.05;;;21.25;;
11911;SDS011;6016;41.928;25.556;2024-01-15T09:33:03;52.10;;;22.73;;
11911;SDS011;6016;41.928;25.556;2024-01-15T09:35:30;49.80;;;22.77;;
11911;SDS011;6016;41.928;25.556;2024-01-15T09:37:57;51.92;;;22.50;;
11911;SDS011;6016;41.928;25.556;2024-01-15T09:40:24;47.05;;;21.13;;
11911;SDS011;6016;41.928;25.556;2024-01-15T09:42:56;50.67;;;20.58;;
11911;SDS011;6016;41.928;25.556;2024-01-15T09:45:23;51.92;;;23.15;;
11911;SDS011;6016;41.928;25.556;2024-01-15T09:47:51;52.00;;;21.27;;
11911;SDS011;6016;41.928;25.556;2024-01-15T09:50:20;49.25;;;20.98;;
11911;SDS011;6016;41.928;25.556;2024-01-15T09:52:47;49.03;;;20.55;;
11911;SDS011;6016;41.928;25.556;2024-01-15T09:55:15;47.72;;;20.70;;
11911;SDS011;6016;41.928;25.556;2024-01-15T09:57:44;50.15;;;20.77;;
11911;SDS011;6016;41.928;25.556;2024-01-15T10:00:12;53.28;;;21.30;;
11911;SDS011;6016;41.928;25.556;2024-01-15T10:02:41;47.30;;;20.75;;
11911;SDS011;6016;41.928;25.556;2024-01-15T10:05:08;47.22;;;20.13;;
11911;SDS011;6016;41.928;25.556;2024-01-15T10:07:37;40.28;;;17.50;;
11911;SDS011;6016;41.928;25.556;2024-01-15T10:10:06;43.78;;;17.40;;
11911;SDS011;6016;41.928;25.556;2024-01-15T10:12:34;40.10;;;16.85;;
11911;SDS011;6016;41.928;25.556;2024-01-15T10:15:02;45.80;;;18.00;;
11911;SDS011;6016;41.928;25.556;2024-01-15T10:17:30;53.53;;;20.15;;
11911;SDS011;6016;41.928;25.556;2024-01-15T10:19:57;51.45;;;20.45;;
11911;SDS011;6016;41.928;25.556;2024-01-15T10:22:25;49.75;;;19.05;;
11911;SDS011;6016;41.928;25.556;2024-01-15T10:24:54;40.90;;;18.05;;
11911;SDS011;6016;41.928;25.556;2024-01-15T10:27:21;50.75;;;20.92;;
11911;SDS011;6016;41.928;25.556;2024-01-15T10:29:48;41.90;;;19.35;;
11911;SDS011;6016;41.928;25.556;2024-01-15T10:32:15;43.15;;;18.58;;
11911;SDS011;6016;41.928;25.556;2024-01-15T10:34:43;38.92;;;17.58;;
11911;SDS011;6016;41.928;25.556;2024-01-15T10:37:10;40.63;;;17.25;;
11911;SDS011;6016;41.928;25.556;2024-01-15T10:39:37;42.50;;;17.13;;
11911;SDS011;6016;41.928;25.556;2024-01-15T10:42:06;39.90;;;16.30;;
11911;SDS011;6016;41.928;25.556;2024-01-15T10:44:33;50.53;;;19.27;;
11911;SDS011;6016;41.928;25.556;2024-01-15T10:47:01;38.30;;;16.25;;
11911;SDS011;6016;41.928;25.556;2024-01-15T10:49:29;43.67;;;17.77;;
11911;SDS011;6016;41.928;25.556;2024-01-15T10:51:57;38.70;;;16.58;;
11911;SDS011;6016;41.928;25.556;2024-01-15T10:54:25;42.88;;;17.00;;
11911;SDS011;6016;41.928;25.556;2024-01-15T10:56:53;40.65;;;17.83;;
11911;SDS011;6016;41.928;25.556;2024-01-15T10:59:24;41.92;;;18.13;;
11911;SDS011;6016;41.928;25.556;2024-01-15T11:01:51;38.33;;;16.70;;
11911;SDS011;6016;41.928;25.556;2024-01-15T11:04:19;40.20;;;18.23;;
11911;SDS011;6016;41.928;25.556;2024-01-15T11:06:49;37.13;;;17.30;;
11911;SDS011;6016;41.928;25.556;2024-01-15T11:09:18;39.20;;;18.33;;
11911;SDS011;6016;41.928;25.556;2024-01-15T11:11:46;46.17;;;19.05;;
11911;SDS011;6016;41.928;25.556;2024-01-15T11:17:01;50.13;;;22.02;;
11911;SDS011;6016;41.928;25.556;2024-01-15T11:19:35;56.72;;;23.35;;
11911;SDS011;6016;41.928;25.556;2024-01-15T11:22:03;51.47;;;22.55;;
11911;SDS011;6016;41.928;25.556;2024-01-15T11:24:38;61.05;;;23.75;;
11911;SDS011;6016;41.928;25.556;2024-01-15T11:27:06;54.88;;;22.60;;
11911;SDS011;6016;41.928;25.556;2024-01-15T11:29:36;63.13;;;25.63;;
11911;SDS011;6016;41.928;25.556;2024-01-15T11:32:04;53.17;;;22.80;;
11911;SDS011;6016;41.928;25.556;2024-01-15T11:34:54;57.55;;;23.00;;
11911;SDS011;6016;41.928;25.556;2024-01-15T11:37:27;47.03;;;19.35;;
11911;SDS011;6016;41.928;25.556;2024-01-15T11:39:59;40.50;;;18.20;;
11911;SDS011;6016;41.928;25.556;2024-01-15T11:42:28;35.15;;;15.45;;
11911;SDS011;6016;41.928;25.556;2024-01-15T11:44:58;35.97;;;16.17;;
11911;SDS011;6016;41.928;25.556;2024-01-15T11:50:39;36.03;;;14.48;;
11911;SDS011;6016;41.928;25.556;2024-01-15T11:53:11;36.95;;;15.73;;
11911;SDS011;6016;41.928;25.556;2024-01-15T11:55:43;34.30;;;15.13;;
11911;SDS011;6016;41.928;25.556;2024-01-15T11:58:11;34.60;;;15.55;;
11911;SDS011;6016;41.928;25.556;2024-01-15T12:00:40;35.05;;;15.35;;
11911;SDS011;6016;41.928;25.556;2024-01-15T12:03:09;36.55;;;15.80;;
11911;SDS011;6016;41.928;25.556;2024-01-15T12:05:36;34.85;;;16.05;;
11911;SDS011;6016;41.928;25.556;2024-01-15T12:08:04;33.97;;;14.63;;
11911;SDS011;6016;41.928;25.556;2024-01-15T12:10:35;38.95;;;15.18;;
11911;SDS011;6016;41.928;25.556;2024-01-15T12:13:04;42.08;;;19.33;;
11911;SDS011;6016;41.928;25.556;2024-01-15T12:18:05;36.78;;;16.10;;
11911;SDS011;6016;41.928;25.556;2024-01-15T12:20:32;35.45;;;15.50;;
11911;SDS011;6016;41.928;25.556;2024-01-15T12:23:01;35.60;;;15.20;;
11911;SDS011;6016;41.928;25.556;2024-01-15T12:25:28;34.25;;;14.88;;
11911;SDS011;6016;41.928;25.556;2024-01-15T12:27:57;35.97;;;15.82;;
11911;SDS011;6016;41.928;25.556;2024-01-15T12:30:25;37.15;;;15.10;;
11911;SDS011;6016;41.928;25.556;2024-01-15T12:32:53;32.05;;;14.93;;
11911;SDS011;6016;41.928;25.556;2024-01-15T12:35:23;30.17;;;14.30;;
11911;SDS011;6016;41.928;25.556;2024-01-15T12:37:51;36.08;;;14.98;;
11911;SDS011;6016;41.928;25.556;2024-01-15T12:40:18;38.33;;;16.05;;
11911;SDS011;6016;41.928;25.556;2024-01-15T12:42:46;43.95;;;17.52;;
11911;SDS011;6016;41.928;25.556;2024-01-15T12:45:13;46.55;;;18.77;;
11911;SDS011;6016;41.928;25.556;2024-01-15T12:47:40;50.40;;;19.50;;
11911;SDS011;6016;41.928;25.556;2024-01-15T12:50:08;51.63;;;20.33;;
11911;SDS011;6016;41.928;25.556;2024-01-15T12:52:39;42.92;;;17.92;;
11911;SDS011;6016;41.928;25.556;2024-01-15T12:55:07;43.30;;;18.60;;
11911;SDS011;6016;41.928;25.556;2024-01-15T12:57:35;47.55;;;20.17;;
11911;SDS011;6016;41.928;25.556;2024-01-15T13:00:02;56.08;;;21.92;;
11911;SDS011;6016;41.928;25.556;2024-01-15T13:02:32;61.83;;;22.42;;
11911;SDS011;6016;41.928;25.556;2024-01-15T13:04:59;54.97;;;20.67;;
11911;SDS011;6016;41.928;25.556;2024-01-15T13:07:27;55.25;;;21.20;;
11911;SDS011;6016;41.928;25.556;2024-01-15T13:09:55;61.97;;;21.67;;
11911;SDS011;6016;41.928;25.556;2024-01-15T13:12:23;55.75;;;21.65;;
11911;SDS011;6016;41.928;25.556;2024-01-15T13:14:50;56.03;;;21.75;;
11911;SDS011;6016;41.928;25.556;2024-01-15T13:17:17;57.45;;;21.27;;
11911;SDS011;6016;41.928;25.556;2024-01-15T13:19:46;57.75;;;20.70;;
11911;SDS011;6016;41.928;25.556;2024-01-15T13:22:13;54.47;;;22.85;;
11911;SDS011;6016;41.928;25.556;2024-01-15T13:24:41;64.68;;;24.02;;
11911;SDS011;6016;41.928;25.556;2024-01-15T13:27:10;64.75;;;23.95;;
11911;SDS011;6016;41.928;25.556;2024-01-15T13:29:37;57.95;;;22.83;;
11911;SDS011;6016;41.928;25.556;2024-01-15T13:32:04;52.22;;;20.38;;
11911;SDS011;6016;41.928;25.556;2024-01-15T13:34:31;60.65;;;23.60;;
11911;SDS011;6016;41.928;25.556;2024-01-15T13:36:58;48.17;;;19.75;;
11911;SDS011;6016;41.928;25.556;2024-01-15T13:39:25;61.08;;;22.95;;
11911;SDS011;6016;41.928;25.556;2024-01-15T13:41:52;55.20;;;22.17;;
11911;SDS011;6016;41.928;25.556;2024-01-15T13:44:20;78.85;;;29.08;;
11911;SDS011;6016;41.928;25.556;2024-01-15T13:46:47;68.53;;;25.75;;
11911;SDS011;6016;41.928;25.556;2024-01-15T13:49:14;61.63;;;24.63;;
11911;SDS011;6016;41.928;25.556;2024-01-15T13:51:41;68.70;;;25.33;;
11911;SDS011;6016;41.928;25.556;2024-01-15T13:54:08;51.20;;;21.10;;
11911;SDS011;6016;41.928;25.556;2024-01-15T13:56:35;48.45;;;20.65;;
11911;SDS011;6016;41.928;25.556;2024-01-15T13:59:03;54.00;;;21.67;;
11911;SDS011;6016;41.928;25.556;2024-01-15T14:01:32;53.55;;;21.02;;
11911;SDS011;6016;41.928;25.556;2024-01-15T14:03:59;62.30;;;24.17;;
11911;SDS011;6016;41.928;25.556;2024-01-15T14:06:26;54.22;;;22.25;;
11911;SDS011;6016;41.928;25.556;2024-01-15T14:08:53;59.55;;;25.17;;
11911;SDS011;6016;41.928;25.556;2024-01-15T14:11:20;65.72;;;28.42;;
11911;SDS011;6016;41.928;25.556;2024-01-15T14:13:48;58.03;;;24.67;;
11911;SDS011;6016;41.928;25.556;2024-01-15T14:16:15;49.92;;;20.65;;
11911;SDS011;6016;41.928;25.556;2024-01-15T14:18:43;47.33;;;20.60;;
11911;SDS011;6016;41.928;25.556;2024-01-15T14:21:10;63.78;;;26.35;;
11911;SDS011;6016;41.928;25.556;2024-01-15T14:23:37;81.30;;;35.53;;
11911;SDS011;6016;41.928;25.556;2024-01-15T14:26:04;95.55;;;41.20;;
11911;SDS011;6016;41.928;25.556;2024-01-15T14:28:31;103.85;;;43.42;;
11911;SDS011;6016;41.928;25.556;2024-01-15T14:30:58;99.10;;;41.47;;